Time;durP1;ratioP1;P1;durP2;ratioP2;P2;SDS_P1;SDS_P2;PMS_P1;PMS_P2;Temp;Humidity;BMP_temperature;BMP_pressure;BME280_temperature;BME280_humidity;BME280_pressure;Samples;Min_cycle;Max_cycle;Signal;HPM_P1;HPM_P2
2021/05/21 00:00:16;;;;;;;1.00;0.77;;;;;;;29.87;19.47;94136.97;5034133;28;20064;-51
2021/05/21 00:02:43;;;;;;;1.00;0.70;;;;;;;30.07;19.70;94133.13;5041964;28;20067;-55
2021/05/21 00:05:10;;;;;;;1.77;0.70;;;;;;;30.44;19.25;94136.59;5054598;28;20534;-58
2021/05/21 00:07:38;;;;;;;1.65;0.90;;;;;;;30.73;18.81;94133.31;5037375;28;20079;-49
2021/05/21 00:10:06;;;;;;;1.67;0.75;;;;;;;30.26;19.29;94138.94;5054689;28;20052;-53
2021/05/21 00:12:33;;;;;;;1.20;0.85;;;;;;;29.60;20.19;94134.41;5048344;28;20053;-50
2021/05/21 00:15:00;;;;;;;1.20;0.60;;;;;;;29.82;19.72;94122.06;5034464;28;20049;-51
2021/05/21 00:17:27;;;;;;;0.90;0.70;;;;;;;29.73;19.61;94125.31;5033965;28;20080;-50
2021/05/21 00:19:55;;;;;;;1.65;0.90;;;;;;;30.30;19.33;94134.97;5034725;28;20052;-52
2021/05/21 00:22:22;;;;;;;1.30;0.73;;;;;;;30.21;19.37;94132.09;5034360;28;20049;-49
2021/05/21 00:24:49;;;;;;;2.38;0.80;;;;;;;29.78;19.82;94132.16;5033232;28;20052;-50
2021/05/21 00:27:16;;;;;;;0.77;0.60;;;;;;;30.43;19.05;94127.00;5034192;28;20054;-54
2021/05/21 00:29:43;;;;;;;1.05;0.93;;;;;;;29.98;19.51;94130.22;5034733;28;20049;-46
2021/05/21 00:32:11;;;;;;;1.55;0.80;;;;;;;30.25;19.38;94138.16;5034026;28;20052;-51
2021/05/21 00:34:38;;;;;;;1.10;1.00;;;;;;;30.11;19.41;94137.69;5034486;28;20049;-53
2021/05/21 00:37:05;;;;;;;1.10;0.90;;;;;;;29.63;19.92;94142.44;5034611;28;20360;-46
2021/05/21 00:39:32;;;;;;;1.92;1.00;;;;;;;30.50;19.11;94143.03;5034540;28;20053;-48
2021/05/21 00:42:00;;;;;;;1.85;0.88;;;;;;;30.37;19.30;94142.16;5034445;28;20056;-51
2021/05/21 00:44:27;;;;;;;1.35;1.08;;;;;;;30.16;19.43;94139.91;5052850;28;20047;-52
2021/05/21 00:47:19;;;;;;;1.00;0.80;;;;;;;30.21;19.47;94142.88;5044207;28;20056;-44
2021/05/21 00:49:46;;;;;;;1.10;1.00;;;;;;;30.07;19.65;94143.91;5054430;28;20375;-54
2021/05/21 00:52:17;;;;;;;1.10;0.90;;;;;;;30.76;18.77;94145.97;5041848;28;20060;-50
2021/05/21 00:54:45;;;;;;;1.27;1.10;;;;;;;29.86;19.57;94149.69;5053331;28;20341;-53
2021/05/21 00:57:12;;;;;;;1.27;1.17;;;;;;;30.14;19.62;94151.09;5048834;28;20048;-51
2021/05/21 00:59:41;;;;;;;1.50;1.00;;;;;;;30.10;19.74;94152.34;5016970;28;20052;-55
2021/05/21 01:02:09;;;;;;;1.55;1.20;;;;;;;29.68;20.23;94160.06;5032719;28;20045;-49
2021/05/21 01:04:37;;;;;;;1.50;1.20;;;;;;;30.00;19.94;94154.06;5034028;28;20042;-54
2021/05/21 01:07:05;;;;;;;1.10;0.90;;;;;;;29.28;20.31;94159.19;5030943;28;20384;-53
2021/05/21 01:09:33;;;;;;;1.00;0.90;;;;;;;29.70;20.26;94146.94;5014315;28;20050;-48
2021/05/21 01:12:01;;;;;;;1.10;1.00;;;;;;;29.93;19.85;94170.38;5021778;28;20049;-55
2021/05/21 01:14:28;;;;;;;1.25;1.10;;;;;;;30.02;19.94;94155.16;5054019;28;20049;-52
2021/05/21 01:16:56;;;;;;;1.10;0.90;;;;;;;30.16;19.84;94172.25;5037944;28;20052;-51
2021/05/21 01:19:23;;;;;;;1.23;1.00;;;;;;;29.68;20.34;94176.22;5034121;28;20068;-54
2021/05/21 01:21:50;;;;;;;1.40;1.10;;;;;;;30.64;19.17;94174.34;5035536;28;20045;-53
2021/05/21 01:24:20;;;;;;;1.20;1.00;;;;;;;30.34;19.41;94178.03;5024085;28;20057;-50
2021/05/21 01:26:48;;;;;;;1.10;0.82;;;;;;;30.02;19.84;94163.25;5031677;28;20053;-54
2021/05/21 01:29:15;;;;;;;1.20;1.00;;;;;;;29.75;20.04;94174.16;5033831;28;20049;-51
2021/05/21 01:31:43;;;;;;;1.00;0.90;;;;;;;30.31;19.62;94170.78;5033487;28;20056;-52
2021/05/21 01:34:11;;;;;;;1.70;1.10;;;;;;;31.36;18.47;94178.88;5033982;28;20049;-49
2021/05/21 01:36:38;;;;;;;1.20;0.95;;;;;;;29.80;20.05;94183.69;5016264;28;20052;-52
2021/05/21 01:39:10;;;;;;;1.10;0.90;;;;;;;30.02;20.11;94190.19;5016370;28;20448;-49
2021/05/21 01:41:39;;;;;;;1.15;0.95;;;;;;;30.72;19.35;94185.75;5034024;28;20060;-48
2021/05/21 01:44:08;;;;;;;1.30;1.00;;;;;;;31.21;19.08;94190.00;5014041;28;20049;-50
2021/05/21 01:46:36;;;;;;;1.55;1.08;;;;;;;30.01;20.34;94191.38;5028946;28;20041;-46
2021/05/21 01:49:04;;;;;;;1.00;0.80;;;;;;;30.20;20.10;94189.88;5033554;28;20053;-52
2021/05/21 01:51:33;;;;;;;1.08;0.90;;;;;;;29.87;20.32;94194.31;5033829;28;20487;-57
2021/05/21 01:54:15;;;;;;;1.40;1.00;;;;;;;29.55;20.86;94199.53;5052383;28;20045;-47
2021/05/21 01:56:43;;;;;;;1.33;1.00;;;;;;;30.24;19.83;94195.97;5054016;28;20048;-52
2021/05/21 01:59:11;;;;;;;0.75;0.68;;;;;;;30.65;19.40;94198.19;5037221;28;20360;-58
2021/05/21 02:01:38;;;;;;;0.90;0.70;;;;;;;30.54;19.50;94203.03;5037505;28;20045;-59
2021/05/21 02:04:05;;;;;;;1.85;0.80;;;;;;;29.49;20.66;94201.19;5055925;28;20388;-46
2021/05/21 02:06:37;;;;;;;0.90;0.60;;;;;;;30.24;20.07;94192.50;5057085;28;20045;-49
2021/05/21 02:09:08;;;;;;;1.77;0.70;;;;;;;30.71;19.70;94189.59;5056917;28;20053;-50
2021/05/21 02:11:36;;;;;;;0.88;0.70;;;;;;;30.79;19.63;94185.59;5057173;28;20045;-50
2021/05/21 02:14:05;;;;;;;0.98;0.77;;;;;;;30.15;20.23;94186.91;5037583;28;20057;-55
2021/05/21 02:16:32;;;;;;;1.10;0.80;;;;;;;30.54;19.67;94186.88;5036228;28;20049;-51
2021/05/21 02:18:59;;;;;;;1.83;0.75;;;;;;;30.48;19.42;94183.16;5019252;28;20049;-54
2021/05/21 02:21:32;;;;;;;1.00;0.73;;;;;;;30.11;20.12;94197.00;5036531;28;20072;-51
2021/05/21 02:24:05;;;;;;;1.25;0.63;;;;;;;30.41;19.83;94188.66;5054214;28;20395;-55
2021/05/21 02:26:34;;;;;;;0.90;0.70;;;;;;;29.90;20.50;94193.50;5056710;28;20053;-47
2021/05/21 02:29:01;;;;;;;2.15;0.70;;;;;;;30.34;20.01;94191.53;5031499;28;20054;-55
2021/05/21 02:31:28;;;;;;;1.67;0.80;;;;;;;29.48;21.17;94175.44;5016866;28;20054;-52
2021/05/21 02:33:55;;;;;;;1.02;0.75;;;;;;;30.07;20.45;94181.66;5050526;28;20060;-52
2021/05/21 02:36:23;;;;;;;1.05;0.60;;;;;;;29.76;20.77;94183.75;5056829;28;20055;-53
2021/05/21 02:38:50;;;;;;;0.93;0.47;;;;;;;29.43;21.45;94177.41;5057056;28;20044;-55
2021/05/21 02:41:17;;;;;;;1.67;0.70;;;;;;;29.80;20.86;94182.94;5056478;28;20049;-50
2021/05/21 02:43:44;;;;;;;1.20;0.70;;;;;;;30.10;20.59;94190.06;5040732;28;20361;-55
2021/05/21 02:46:11;;;;;;;0.70;0.50;;;;;;;29.13;21.68;94199.03;5043363;28;20044;-48
2021/05/21 02:48:38;;;;;;;0.95;0.55;;;;;;;29.90;21.12;94193.50;5056761;28;20061;-54
2021/05/21 02:51:05;;;;;;;1.42;0.60;;;;;;;30.15;20.71;94197.69;5056129;28;20049;-53
2021/05/21 02:53:33;;;;;;;0.70;0.52;;;;;;;29.94;20.82;94198.84;5055777;28;20049;-52
2021/05/21 02:56:00;;;;;;;1.90;0.60;;;;;;;30.23;20.75;94196.38;5056114;28;20048;-46
2021/05/21 02:58:27;;;;;;;0.93;0.60;;;;;;;29.89;21.16;94202.75;5041187;28;20064;-48
2021/05/21 03:00:54;;;;;;;1.15;0.70;;;;;;;29.95;21.00;94206.50;5036297;28;20049;-54
2021/05/21 03:03:22;;;;;;;1.08;0.65;;;;;;;30.85;19.92;94210.88;5047124;28;20063;-46
2021/05/21 03:05:49;;;;;;;2.03;0.63;;;;;;;30.00;20.71;94208.72;5055819;28;20447;-47
2021/05/21 03:08:16;;;;;;;1.00;0.80;;;;;;;30.01;20.65;94209.47;5055449;28;20048;-49
2021/05/21 03:10:43;;;;;;;0.80;0.50;;;;;;;30.39;20.30;94215.28;5056011;28;20459;-53
2021/05/21 03:13:10;;;;;;;1.00;0.65;;;;;;;30.02;20.87;94217.16;5055085;28;20041;-47
2021/05/21 03:15:37;;;;;;;0.93;0.70;;;;;;;29.80;21.15;94218.72;5050471;28;20448;-53
2021/05/21 03:18:05;;;;;;;1.40;0.82;;;;;;;29.10;21.93;94230.19;5035811;28;20060;-55
2021/05/21 03:20:32;;;;;;;1.42;0.90;;;;;;;30.34;20.45;94224.63;5035570;28;20084;-54
2021/05/21 03:22:59;;;;;;;0.90;0.65;;;;;;;29.50;21.76;94230.38;5042349;28;20051;-53
2021/05/21 03:25:27;;;;;;;1.33;0.73;;;;;;;30.28;20.92;94226.31;5054682;28;20371;-64
2021/05/21 03:27:54;;;;;;;2.90;0.90;;;;;;;29.54;21.89;94227.63;5044493;28;20041;-53
2021/05/21 03:30:21;;;;;;;1.60;0.90;;;;;;;29.83;21.45;94220.56;5035028;28;20053;-51
2021/05/21 03:32:48;;;;;;;1.40;1.13;;;;;;;29.38;22.13;94223.59;5040882;28;20045;-49
2021/05/21 03:35:15;;;;;;;1.20;1.02;;;;;;;29.95;21.26;94228.06;5055222;28;20052;-47
2021/05/21 03:37:42;;;;;;;1.45;1.00;;;;;;;29.68;21.87;94236.25;5055486;28;20041;-47
2021/05/21 03:40:10;;;;;;;1.73;1.00;;;;;;;29.52;21.68;94227.28;5055596;28;20482;-57
2021/05/21 03:42:37;;;;;;;1.40;1.10;;;;;;;29.66;21.38;94227.03;5050485;28;20045;-59
2021/05/21 03:45:05;;;;;;;1.60;1.33;;;;;;;29.56;21.64;94236.81;5034818;28;20448;-45
2021/05/21 03:47:34;;;;;;;4.93;1.20;;;;;;;29.72;21.59;94230.78;5055141;28;20055;-52
2021/05/21 03:50:01;;;;;;;1.20;1.00;;;;;;;29.94;21.31;94231.94;5055213;28;20053;-55
2021/05/21 03:52:28;;;;;;;1.25;1.00;;;;;;;30.22;21.24;94229.91;5054535;28;20052;-47
2021/05/21 03:54:56;;;;;;;1.38;1.20;;;;;;;29.78;21.46;94234.53;5037672;28;20056;-56
2021/05/21 03:57:23;;;;;;;1.38;1.05;;;;;;;28.77;22.52;94234.50;5048554;28;20045;-47
2021/05/21 03:59:52;;;;;;;1.80;1.20;;;;;;;29.34;22.47;94239.06;5034927;28;20053;-52
2021/05/21 04:02:19;;;;;;;1.67;1.10;;;;;;;29.89;21.81;94245.84;5035506;28;20436;-53
2021/05/21 04:04:46;;;;;;;1.55;1.08;;;;;;;30.22;21.35;94254.16;5054861;28;20455;-52
2021/05/21 04:07:14;;;;;;;2.97;1.30;;;;;;;29.19;22.91;94259.31;5054542;28;20056;-54
2021/05/21 04:09:41;;;;;;;1.88;1.17;;;;;;;30.55;20.73;94266.59;5054830;28;20064;-51
2021/05/21 04:12:08;;;;;;;1.30;1.10;;;;;;;29.85;21.50;94261.34;5037329;28;20044;-55
2021/05/21 04:14:35;;;;;;;1.45;1.15;;;;;;;30.04;20.96;94271.41;5034153;28;20045;-54
2021/05/21 04:17:02;;;;;;;1.95;1.40;;;;;;;29.32;22.49;94262.94;5033952;28;20456;-56
2021/05/21 04:19:29;;;;;;;2.55;1.45;;;;;;;29.51;22.19;94261.53;5034219;28;20045;-46
2021/05/21 04:21:56;;;;;;;1.80;1.50;;;;;;;29.86;21.63;94259.41;5034620;28;20049;-45
2021/05/21 04:24:24;;;;;;;1.38;1.08;;;;;;;29.54;21.88;94257.25;5031818;28;20045;-49
2021/05/21 04:26:51;;;;;;;1.40;1.30;;;;;;;30.47;20.73;94265.22;5034644;28;20041;-71
2021/05/21 04:29:18;;;;;;;1.60;1.15;;;;;;;29.92;21.47;94269.28;5034311;28;20049;-43
2021/05/21 04:31:45;;;;;;;1.33;1.00;;;;;;;29.73;21.49;94267.31;5034525;28;20491;-42
2021/05/21 04:34:12;;;;;;;2.08;0.90;;;;;;;29.40;21.81;94258.97;5033777;28;20056;-49
2021/05/21 04:36:39;;;;;;;1.05;0.80;;;;;;;30.04;21.26;94257.19;5034312;28;20057;-51
2021/05/21 04:39:07;;;;;;;1.23;0.98;;;;;;;29.98;21.57;94253.41;5034278;28;20050;-56
2021/05/21 04:41:35;;;;;;;1.25;0.80;;;;;;;30.63;20.70;94265.28;5049764;28;20065;-45
2021/05/21 04:44:02;;;;;;;1.00;0.73;;;;;;;30.23;21.11;94263.78;5039380;28;20462;-47
2021/05/21 04:46:29;;;;;;;3.28;0.80;;;;;;;30.62;20.83;94268.41;5027515;28;20362;-70
2021/05/21 04:48:56;;;;;;;1.20;0.90;;;;;;;30.06;21.62;94277.16;5054255;28;20049;-47
2021/05/21 04:51:23;;;;;;;1.52;1.13;;;;;;;31.57;20.02;94270.19;5027145;28;20467;-53
2021/05/21 04:53:51;;;;;;;1.13;0.90;;;;;;;31.67;19.66;94290.78;5026194;28;20050;-48
2021/05/21 04:56:19;;;;;;;1.45;0.85;;;;;;;30.17;21.44;94287.72;5034495;28;20360;-49
2021/05/21 04:58:46;;;;;;;1.23;0.90;;;;;;;31.05;20.34;94300.66;5034456;28;20053;-48
2021/05/21 05:01:13;;;;;;;1.20;0.80;;;;;;;30.48;20.94;94301.81;5031535;28;20103;-47
2021/05/21 05:03:40;;;;;;;2.42;0.80;;;;;;;30.24;21.00;94308.44;5024120;28;20130;-50
2021/05/21 05:06:07;;;;;;;0.90;0.60;;;;;;;30.76;20.99;94307.84;5034154;28;20060;-46
2021/05/21 05:08:34;;;;;;;1.00;0.70;;;;;;;29.73;22.02;94310.44;5034544;28;20038;-48
2021/05/21 05:11:02;;;;;;;1.98;0.60;;;;;;;30.94;20.51;94308.97;5034099;28;20479;-47
2021/05/21 05:13:29;;;;;;;1.08;0.60;;;;;;;30.14;21.69;94320.16;5016234;28;20053;-51
2021/05/21 05:15:56;;;;;;;0.82;0.50;;;;;;;30.76;20.75;94315.94;5033645;28;20069;-64
2021/05/21 05:18:24;;;;;;;0.80;0.50;;;;;;;30.68;21.14;94315.28;5034034;28;20053;-53
2021/05/21 05:20:51;;;;;;;0.60;0.40;;;;;;;30.72;20.87;94320.66;5016867;28;20049;-67
2021/05/21 05:23:19;;;;;;;0.75;0.60;;;;;;;30.40;20.95;94319.28;5033318;28;20053;-46
2021/05/21 05:25:47;;;;;;;2.10;0.57;;;;;;;30.76;20.42;94326.72;5033744;28;20051;-48
2021/05/21 05:28:16;;;;;;;0.65;0.50;;;;;;;30.55;20.97;94344.06;5036550;28;20052;-46
2021/05/21 05:30:43;;;;;;;1.10;0.63;;;;;;;30.24;21.40;94343.47;5054520;28;20053;-46
2021/05/21 05:33:11;;;;;;;1.02;0.60;;;;;;;30.23;21.30;94344.66;5039476;28;20060;-48
2021/05/21 05:35:39;;;;;;;0.82;0.60;;;;;;;29.95;21.81;94338.53;5057936;28;20079;-47
2021/05/21 05:38:06;;;;;;;0.80;0.50;;;;;;;30.49;20.74;94335.69;5057856;28;20447;-46
2021/05/21 05:40:35;;;;;;;1.40;0.57;;;;;;;30.38;20.90;94340.50;5057739;28;20045;-48
2021/05/21 05:43:02;;;;;;;1.38;0.60;;;;;;;30.76;21.05;94351.00;5056888;28;20041;-46
2021/05/21 05:45:30;;;;;;;0.82;0.60;;;;;;;30.52;21.38;94356.44;5053315;28;20048;-46
2021/05/21 05:47:57;;;;;;;0.75;0.45;;;;;;;30.81;20.80;94359.38;5037612;28;20375;-46
2021/05/21 05:50:24;;;;;;;1.00;0.75;;;;;;;31.84;19.37;94365.28;5035254;28;20068;-47
2021/05/21 05:52:52;;;;;;;0.80;0.55;;;;;;;31.19;20.61;94372.50;5027849;28;20053;-47
2021/05/21 05:55:19;;;;;;;1.30;0.60;;;;;;;31.64;19.89;94378.06;5037309;28;20397;-47
2021/05/21 05:57:46;;;;;;;1.90;0.77;;;;;;;31.82;20.10;94389.28;5037423;28;20049;-65
2021/05/21 06:00:14;;;;;;;1.40;0.88;;;;;;;32.43;19.53;94380.47;5019074;28;20046;-48
2021/05/21 06:02:41;;;;;;;1.30;0.75;;;;;;;32.63;18.92;94401.22;5043794;28;20049;-48
2021/05/21 06:05:08;;;;;;;1.27;0.90;;;;;;;33.46;18.02;94395.84;5037223;28;20049;-51
2021/05/21 06:07:35;;;;;;;1.75;0.95;;;;;;;33.27;18.65;94394.81;5017780;28;20053;-47
2021/05/21 06:10:04;;;;;;;1.48;0.90;;;;;;;33.22;18.60;94398.06;5017440;28;20053;-47
2021/05/21 06:12:31;;;;;;;1.42;0.95;;;;;;;33.20;18.21;94394.25;5034194;28;20045;-49
2021/05/21 06:14:59;;;;;;;1.10;0.90;;;;;;;33.99;17.62;94390.75;5037622;28;20045;-46
2021/05/21 06:17:26;;;;;;;1.15;0.75;;;;;;;33.40;18.02;94387.50;5036524;28;20052;-64
2021/05/21 06:19:53;;;;;;;1.00;0.65;;;;;;;33.61;18.18;94380.69;5037145;28;20053;-48
2021/05/21 06:22:20;;;;;;;1.70;1.02;;;;;;;33.10;18.71;94390.69;5036684;28;20045;-66
2021/05/21 06:24:50;;;;;;;1.38;1.08;;;;;;;33.40;18.35;94386.75;5036702;28;20052;-60
2021/05/21 06:27:29;;;;;;;1.50;1.05;;;;;;;32.39;19.23;94381.75;5018047;28;20049;-49
2021/05/21 06:29:56;;;;;;;1.52;0.80;;;;;;;31.63;19.73;94392.78;5017115;28;20053;-70
2021/05/21 06:32:23;;;;;;;2.72;0.90;;;;;;;31.91;19.28;94391.38;5030407;28;20460;-49
2021/05/21 06:34:51;;;;;;;2.47;1.10;;;;;;;31.15;20.39;94391.44;5034018;28;20052;-51
2021/05/21 06:37:18;;;;;;;1.70;1.05;;;;;;;31.32;20.83;94388.84;5020090;28;20061;-65
2021/05/21 06:39:45;;;;;;;1.92;1.02;;;;;;;31.10;20.73;94394.66;5016118;28;20042;-67
2021/05/21 06:42:12;;;;;;;1.17;0.80;;;;;;;30.10;21.76;94389.53;5020742;28;20376;-53
2021/05/21 06:44:39;;;;;;;1.77;0.88;;;;;;;30.67;21.08;94397.41;5036376;28;20052;-67
2021/05/21 06:47:07;;;;;;;2.45;0.70;;;;;;;31.06;20.40;94393.97;5035859;28;20096;-55
2021/05/21 06:49:37;;;;;;;1.13;0.70;;;;;;;31.67;19.40;94393.44;5019753;28;20053;-51
2021/05/21 06:52:04;;;;;;;1.67;0.93;;;;;;;31.75;19.63;94394.84;5020002;28;20049;-48
2021/05/21 06:54:32;;;;;;;1.15;0.70;;;;;;;31.25;19.84;94400.56;5036276;28;20049;-47
2021/05/21 06:56:59;;;;;;;1.13;0.80;;;;;;;30.77;20.38;94393.00;5025083;28;20052;-46
2021/05/21 06:59:26;;;;;;;1.65;0.90;;;;;;;31.28;19.91;94408.56;5016611;28;20053;-70
2021/05/21 07:01:53;;;;;;;2.00;1.13;;;;;;;31.64;19.15;94418.59;5017694;28;20476;-47
2021/05/21 07:04:20;;;;;;;1.80;0.93;;;;;;;31.22;20.08;94423.72;5036106;28;20057;-47
2021/05/21 07:06:47;;;;;;;2.08;0.70;;;;;;;30.76;20.02;94419.22;5036162;28;20052;-47
2021/05/21 07:09:15;;;;;;;1.38;0.70;;;;;;;30.98;19.97;94419.59;5016273;28;20056;-52
2021/05/21 07:11:42;;;;;;;1.55;1.00;;;;;;;30.83;20.47;94431.81;5016137;28;20050;-49
2021/05/21 07:14:10;;;;;;;1.23;1.10;;;;;;;31.01;20.09;94424.16;5035490;28;20455;-51
2021/05/21 07:16:37;;;;;;;1.48;1.10;;;;;;;31.62;19.51;94437.19;5035391;28;20053;-46
2021/05/21 07:19:05;;;;;;;1.75;0.90;;;;;;;31.35;19.69;94436.59;5035780;28;20076;-50
2021/05/21 07:21:32;;;;;;;1.95;0.90;;;;;;;32.02;19.19;94429.00;5035814;28;20448;-49
2021/05/21 07:24:05;;;;;;;1.92;1.30;;;;;;;31.43;20.36;94437.97;5035102;28;20049;-49
2021/05/21 07:26:33;;;;;;;1.67;1.15;;;;;;;31.10;20.75;94437.06;5035849;28;20065;-47
2021/05/21 07:29:01;;;;;;;3.15;1.40;;;;;;;31.92;19.87;94440.78;5023217;28;20453;-54
2021/05/21 07:31:28;;;;;;;1.70;1.17;;;;;;;31.26;20.66;94451.44;5016042;28;20460;-46
2021/05/21 07:33:55;;;;;;;3.83;1.20;;;;;;;31.69;19.70;94442.41;5032630;28;20046;-48
2021/05/21 07:36:23;;;;;;;2.13;1.55;;;;;;;31.42;20.06;94444.56;5035675;28;20057;-46
2021/05/21 07:38:52;;;;;;;2.00;1.30;;;;;;;31.77;19.88;94448.47;5035343;28;20033;-49
2021/05/21 07:41:22;;;;;;;1.45;1.23;;;;;;;32.03;19.69;94454.84;5035450;28;20056;-46
2021/05/21 07:43:50;;;;;;;1.30;1.20;;;;;;;31.78;19.83;94456.16;5034995;28;20049;-49
2021/05/21 07:46:17;;;;;;;1.58;1.20;;;;;;;31.47;19.64;94452.16;5034758;28;21107;-45
2021/05/21 07:48:45;;;;;;;1.83;1.20;;;;;;;31.54;19.51;94454.72;5035489;28;20060;-58
2021/05/21 07:51:12;;;;;;;5.22;1.45;;;;;;;32.20;19.17;94457.09;5035329;28;20100;-58
2021/05/21 07:53:39;;;;;;;2.75;2.08;;;;;;;32.41;18.65;94461.28;5033948;28;20065;-48
2021/05/21 07:56:06;;;;;;;1.63;1.52;;;;;;;31.52;19.66;94451.69;5035319;28;20055;-47
2021/05/21 07:58:34;;;;;;;3.58;1.77;;;;;;;32.17;19.28;94457.19;5035177;28;20092;-49
2021/05/21 08:01:01;;;;;;;1.77;1.60;;;;;;;31.40;19.98;94452.31;5035164;28;20044;-51
2021/05/21 08:03:28;;;;;;;2.60;1.67;;;;;;;32.24;19.22;94470.53;5034587;28;20053;-46
2021/05/21 08:05:58;;;;;;;1.67;1.58;;;;;;;32.63;18.74;94468.88;5035323;28;20052;-52
2021/05/21 08:08:26;;;;;;;3.88;1.60;;;;;;;32.14;19.61;94472.31;5035129;28;20053;-47
2021/05/21 08:10:54;;;;;;;1.95;1.38;;;;;;;33.02;18.90;94476.75;5022545;28;20053;-49
2021/05/21 08:13:22;;;;;;;1.38;1.20;;;;;;;33.18;19.00;94469.78;5026013;28;20057;-71
2021/05/21 08:15:50;;;;;;;2.17;1.20;;;;;;;33.36;18.70;94481.66;5034134;28;20052;-47
2021/05/21 08:18:18;;;;;;;1.70;1.10;;;;;;;33.37;18.01;94479.72;5034717;28;20057;-48
2021/05/21 08:20:45;;;;;;;1.52;1.10;;;;;;;33.29;17.80;94478.34;5034896;28;20380;-49
2021/05/21 08:23:14;;;;;;;2.05;1.40;;;;;;;33.76;18.05;94488.66;5034026;28;20052;-51
2021/05/21 08:25:42;;;;;;;1.63;1.25;;;;;;;33.20;19.09;94494.47;5034802;28;20053;-48
2021/05/21 08:28:10;;;;;;;2.70;1.20;;;;;;;33.07;18.71;94495.19;5020211;28;20077;-66
2021/05/21 08:30:37;;;;;;;1.95;1.50;;;;;;;33.31;17.95;94486.81;5014856;28;20441;-47
2021/05/21 08:33:05;;;;;;;2.88;1.70;;;;;;;32.53;18.98;94494.22;5022641;28;20337;-66
2021/05/21 08:35:32;;;;;;;4.00;1.48;;;;;;;32.96;18.37;94497.41;5034534;28;20466;-49
2021/05/21 08:38:00;;;;;;;1.88;1.40;;;;;;;32.61;18.51;94501.75;5034774;28;20045;-48
2021/05/21 08:40:30;;;;;;;2.15;1.70;;;;;;;32.95;18.54;94498.59;5017376;28;20364;-61
2021/05/21 08:42:58;;;;;;;2.75;1.85;;;;;;;33.07;18.28;94500.63;5034178;28;20049;-48
2021/05/21 08:45:28;;;;;;;1.80;1.60;;;;;;;32.91;18.46;94508.00;5033663;28;20064;-57
2021/05/21 08:47:56;;;;;;;3.13;1.90;;;;;;;32.95;18.26;94509.44;5034531;28;20411;-67
2021/05/21 08:50:25;;;;;;;2.90;1.70;;;;;;;32.37;19.05;94508.53;5034812;28;20693;-55
2021/05/21 08:52:52;;;;;;;3.67;1.55;;;;;;;33.25;18.01;94510.19;5033963;28;20056;-47
2021/05/21 08:55:19;;;;;;;2.67;1.95;;;;;;;33.03;17.82;94520.81;5034238;28;20056;-48
2021/05/21 08:57:47;;;;;;;2.92;1.80;;;;;;;33.05;18.08;94519.25;5034428;28;20052;-70
2021/05/21 09:00:15;;;;;;;2.22;1.80;;;;;;;32.71;18.47;94521.63;5034425;28;20054;-48
2021/05/21 09:02:43;;;;;;;3.08;1.80;;;;;;;33.17;17.82;94531.28;5034034;28;20041;-52
2021/05/21 09:05:11;;;;;;;2.67;1.60;;;;;;;33.08;18.01;94528.44;5034721;28;20049;-49
2021/05/21 09:07:40;;;;;;;2.10;1.65;;;;;;;32.80;18.02;94519.88;5038949;28;20057;-46
2021/05/21 09:10:19;;;;;;;5.07;2.10;;;;;;;32.53;18.14;94522.06;5038501;28;20050;-58
2021/05/21 09:12:51;;;;;;;2.92;1.77;;;;;;;32.35;18.34;94527.13;5038091;28;20052;-47
2021/05/21 09:15:23;;;;;;;2.88;2.58;;;;;;;32.97;17.77;94528.72;5037392;28;20068;-50
2021/05/21 09:18:08;;;;;;;5.03;4.53;;;;;;;33.28;17.77;94528.28;5038611;28;20041;-47
2021/05/21 09:20:40;;;;;;;4.40;3.00;;;;;;;33.07;17.98;94527.69;5038398;28;20049;-47
2021/05/21 09:23:07;;;;;;;;;;;;;;;32.47;18.54;94539.97;5038132;28;20487;-46
2021/05/21 09:25:45;;;;;;;3.83;2.47;;;;;;;31.74;19.26;94536.53;5020465;28;19924;-49
2021/05/21 09:28:51;;;;;;;3.60;2.25;;;;;;;32.47;18.53;94540.72;5038202;28;20095;-47
2021/05/21 09:31:22;;;;;;;3.88;2.10;;;;;;;32.44;18.43;94536.16;4922344;29;20060;-46
2021/05/21 09:33:52;;;;;;;2.10;1.90;;;;;;;32.81;18.16;94536.88;4943155;29;20059;-53
2021/05/21 09:36:31;;;;;;;2.30;2.00;;;;;;;33.09;17.70;94538.09;4989882;28;20368;-48
2021/05/21 09:38:59;;;;;;;2.75;2.00;;;;;;;32.61;18.17;94539.66;5018005;28;20064;-47
2021/05/21 09:41:27;;;;;;;2.83;1.83;;;;;;;32.37;18.41;94544.47;5017946;28;20042;-46
2021/05/21 09:44:01;;;;;;;3.58;2.78;;;;;;;32.27;18.31;94548.19;5030338;28;20053;-48
2021/05/21 09:46:39;;;;;;;2.85;2.47;;;;;;;32.46;18.74;94547.31;5030922;28;20067;-46
2021/05/21 09:49:26;;;;;;;4.22;2.85;;;;;;;33.15;18.11;94551.88;5057748;28;20072;-56
2021/05/21 09:51:55;;;;;;;2.58;2.38;;;;;;;32.95;17.75;94557.41;5057587;28;20037;-50
2021/05/21 09:54:22;;;;;;;2.10;1.90;;;;;;;32.64;18.50;94565.09;5056964;28;20455;-47
2021/05/21 09:57:06;;;;;;;3.63;2.00;;;;;;;32.25;18.30;94560.53;5056328;28;20048;-56
2021/05/21 09:59:44;;;;;;;3.00;2.08;;;;;;;32.80;17.66;94567.84;5057518;28;20060;-46
2021/05/21 10:02:30;;;;;;;3.25;2.53;;;;;;;31.85;18.96;94572.22;5039656;28;20041;-47
2021/05/21 10:04:59;;;;;;;3.58;2.80;;;;;;;32.61;18.24;94569.41;5057036;28;20395;-49
2021/05/21 10:07:27;;;;;;;18.85;16.92;;;;;;;32.85;18.08;94575.44;5051901;28;20040;-59
2021/05/21 10:09:54;;;;;;;7.53;6.63;;;;;;;32.88;18.10;94574.59;5017449;28;20050;-52
2021/05/21 10:12:21;;;;;;;6.13;4.40;;;;;;;32.80;18.15;94571.31;5017364;28;20046;-50
2021/05/21 10:14:49;;;;;;;5.18;3.47;;;;;;;32.40;18.55;94578.00;5054853;28;20064;-65
2021/05/21 10:17:22;;;;;;;4.97;4.43;;;;;;;32.57;17.80;94581.50;5036949;28;20052;-47
2021/05/21 10:19:51;;;;;;;7.05;4.53;;;;;;;32.66;18.12;94578.97;5037120;28;20057;-48
2021/05/21 10:22:29;;;;;;;3.75;3.35;;;;;;;32.44;17.85;94584.88;5037031;28;20042;-65
2021/05/21 10:25:08;;;;;;;5.05;2.65;;;;;;;32.45;18.74;94586.38;5019418;28;20049;-46
2021/05/21 10:27:37;;;;;;;5.20;2.50;;;;;;;32.65;18.05;94578.19;5036602;28;20054;-61
2021/05/21 10:30:07;;;;;;;3.75;2.28;;;;;;;33.20;17.76;94583.84;5019538;28;20057;-48
2021/05/21 10:32:35;;;;;;;4.07;2.58;;;;;;;33.02;18.05;94578.88;5036620;28;20041;-47
2021/05/21 10:35:21;;;;;;;3.13;2.50;;;;;;;32.98;18.25;94584.38;5036864;28;20084;-46
2021/05/21 10:38:26;;;;;;;3.00;2.42;;;;;;;33.45;17.14;94577.81;5021830;28;20057;-50
2021/05/21 10:41:16;;;;;;;2.58;2.22;;;;;;;33.22;17.48;94584.19;5036739;28;20361;-49
2021/05/21 10:44:00;;;;;;;2.38;2.17;;;;;;;33.29;18.20;94586.69;5019131;28;20060;-69
2021/05/21 10:46:33;;;;;;;3.85;2.55;;;;;;;33.31;17.57;94584.31;5029306;28;20063;-49
2021/05/21 10:49:03;;;;;;;2.22;2.03;;;;;;;33.65;17.36;94586.56;5025449;28;20054;-48
2021/05/21 10:51:50;;;;;;;2.85;2.20;;;;;;;33.34;18.01;94578.88;5016449;28;20057;-48
2021/05/21 10:54:34;;;;;;;2.60;2.33;;;;;;;33.44;17.39;94574.34;5030029;28;20045;-64
2021/05/21 10:57:23;;;;;;;4.30;2.00;;;;;;;33.69;17.58;94585.25;5035657;28;20053;-53
2021/05/21 10:59:56;;;;;;;2.97;2.67;;;;;;;33.63;17.45;94580.81;5036364;28;20376;-48
2021/05/21 11:02:52;;;;;;;5.65;5.05;;;;;;;33.73;17.25;94588.63;5036319;28;20061;-47
2021/05/21 11:05:23;;;;;;;3.22;2.92;;;;;;;33.69;16.74;94577.13;5021028;28;20057;-58
2021/05/21 11:08:04;;;;;;;3.78;2.42;;;;;;;33.68;16.88;94586.44;5035680;28;20049;-49
2021/05/21 11:10:34;;;;;;;2.13;1.92;;;;;;;33.43;17.20;94597.19;5036469;28;20053;-61
2021/05/21 11:13:12;;;;;;;2.95;2.22;;;;;;;33.22;17.01;94597.72;5035965;28;20045;-48
2021/05/21 11:15:43;;;;;;;2.10;1.70;;;;;;;33.52;17.01;94600.03;5034948;28;20064;-48
2021/05/21 11:18:17;;;;;;;1.73;1.63;;;;;;;33.07;17.16;94600.81;5053249;28;20360;-51
2021/05/21 11:21:09;;;;;;;3.30;2.30;;;;;;;33.42;17.39;94601.09;5056021;28;20056;-48
2021/05/21 11:23:48;;;;;;;2.10;1.90;;;;;;;33.82;17.08;94606.19;5034731;28;20053;-51
2021/05/21 11:26:18;;;;;;;3.20;2.20;;;;;;;33.39;17.32;94599.25;5032612;28;20065;-46
2021/05/21 11:28:54;;;;;;;3.88;3.28;;;;;;;33.58;17.23;94595.66;5035597;28;20037;-50
2021/05/21 11:31:27;;;;;;;5.68;4.15;;;;;;;34.23;16.46;94600.78;5035518;28;20041;-44
2021/05/21 11:33:58;;;;;;;37.25;31.30;;;;;;;34.49;16.32;94600.81;5035624;28;20045;-52
2021/05/21 11:36:27;;;;;;;31.05;27.58;;;;;;;33.73;17.03;94607.59;5044868;28;20537;-47
2021/05/21 11:38:55;;;;;;;13.70;10.98;;;;;;;33.46;17.99;94601.75;5043477;28;20052;-48
2021/05/21 11:41:30;;;;;;;7.57;6.63;;;;;;;33.31;18.56;94601.38;5040926;28;20064;-49
2021/05/21 11:44:02;;;;;;;5.97;4.57;;;;;;;33.67;17.57;94603.13;5043024;28;20049;-47